sensor_id;sensor_type;location;lat;lon;timestamp;temperature;humidity
16249;DHT22;8232;51.678;6.610;2022-08-19T00:01:21;17.90;1.00
16249;DHT22;8232;51.678;6.610;2022-08-19T00:03:48;17.80;1.00
16249;DHT22;8232;51.678;6.610;2022-08-19T00:06:15;17.90;1.00
16249;DHT22;8232;51.678;6.610;2022-08-19T00:08:42;17.80;1.00
16249;DHT22;8232;51.678;6.610;2022-08-19T00:11:10;17.70;1.00
16249;DHT22;8232;51.678;6.610;2022-08-19T00:13:38;17.70;1.00
16249;DHT22;8232;51.678;6.610;2022-08-19T00:16:06;17.70;1.00
16249;DHT22;8232;51.678;6.610;2022-08-19T00:18:34;18.10;1.00
16249;DHT22;8232;51.678;6.610;2022-08-19T00:21:01;18.10;1.00
16249;DHT22;8232;51.678;6.610;2022-08-19T00:23:28;18.00;1.00
16249;DHT22;8232;51.678;6.610;2022-08-19T00:25:55;17.90;1.00
16249;DHT22;8232;51.678;6.610;2022-08-19T00:28:22;17.90;1.00
16249;DHT22;8232;51.678;6.610;2022-08-19T00:30:49;17.90;1.00
16249;DHT22;8232;51.678;6.610;2022-08-19T00:33:18;17.70;1.00
16249;DHT22;8232;51.678;6.610;2022-08-19T00:35:45;17.50;1.00
16249;DHT22;8232;51.678;6.610;2022-08-19T00:38:12;17.50;1.00
16249;DHT22;8232;51.678;6.610;2022-08-19T00:40:39;17.40;1.00
16249;DHT22;8232;51.678;6.610;2022-08-19T00:43:09;17.40;1.00
16249;DHT22;8232;51.678;6.610;2022-08-19T00:45:39;17.40;1.00
16249;DHT22;8232;51.678;6.610;2022-08-19T00:48:07;17.30;1.00
16249;DHT22;8232;51.678;6.610;2022-08-19T00:50:36;17.30;1.00
16249;DHT22;8232;51.678;6.610;2022-08-19T00:53:03;17.20;1.00
16249;DHT22;8232;51.678;6.610;2022-08-19T00:55:32;17.20;1.00
16249;DHT22;8232;51.678;6.610;2022-08-19T00:58:02;17.20;1.00
16249;DHT22;8232;51.678;6.610;2022-08-19T01:00:31;17.30;1.00
16249;DHT22;8232;51.678;6.610;2022-08-19T01:02:59;17.60;1.00
16249;DHT22;8232;51.678;6.610;2022-08-19T01:05:27;17.50;1.00
16249;DHT22;8232;51.678;6.610;2022-08-19T01:07:59;17.50;1.00
16249;DHT22;8232;51.678;6.610;2022-08-19T01:10:29;17.40;1.00
16249;DHT22;8232;51.678;6.610;2022-08-19T01:12:58;17.30;1.00
16249;DHT22;8232;51.678;6.610;2022-08-19T01:15:30;17.30;1.00
16249;DHT22;8232;51.678;6.610;2022-08-19T01:18:00;17.30;1.00
16249;DHT22;8232;51.678;6.610;2022-08-19T01:20:28;17.10;1.00
16249;DHT22;8232;51.678;6.610;2022-08-19T01:22:58;17.00;1.00
16249;DHT22;8232;51.678;6.610;2022-08-19T01:25:28;17.00;1.00
16249;DHT22;8232;51.678;6.610;2022-08-19T01:27:55;16.90;1.00
16249;DHT22;8232;51.678;6.610;2022-08-19T01:30:24;16.90;1.00
16249;DHT22;8232;51.678;6.610;2022-08-19T01:32:52;16.90;1.00
16249;DHT22;8232;51.678;6.610;2022-08-19T01:35:19;16.80;1.00
16249;DHT22;8232;51.678;6.610;2022-08-19T01:37:50;16.80;1.00
16249;DHT22;8232;51.678;6.610;2022-08-19T01:40:22;17.00;1.00
16249;DHT22;8232;51.678;6.610;2022-08-19T01:42:51;16.90;1.00
16249;DHT22;8232;51.678;6.610;2022-08-19T01:45:19;16.80;1.00
16249;DHT22;8232;51.678;6.610;2022-08-19T01:47:46;16.80;1.00
16249;DHT22;8232;51.678;6.610;2022-08-19T01:50:14;16.80;1.00
16249;DHT22;8232;51.678;6.610;2022-08-19T01:52:42;16.70;1.00
16249;DHT22;8232;51.678;6.610;2022-08-19T01:55:13;16.70;1.00
16249;DHT22;8232;51.678;6.610;2022-08-19T01:57:44;16.70;1.00
16249;DHT22;8232;51.678;6.610;2022-08-19T02:00:14;16.70;1.00
16249;DHT22;8232;51.678;6.610;2022-08-19T02:02:41;16.60;1.00
16249;DHT22;8232;51.678;6.610;2022-08-19T02:05:09;16.80;1.00
16249;DHT22;8232;51.678;6.610;2022-08-19T02:07:37;16.80;1.00
16249;DHT22;8232;51.678;6.610;2022-08-19T02:10:07;16.90;1.00
16249;DHT22;8232;51.678;6.610;2022-08-19T02:12:34;16.80;1.00
16249;DHT22;8232;51.678;6.610;2022-08-19T02:15:03;16.70;1.00
16249;DHT22;8232;51.678;6.610;2022-08-19T02:17:31;16.60;1.00
16249;DHT22;8232;51.678;6.610;2022-08-19T02:19:58;16.90;1.00
16249;DHT22;8232;51.678;6.610;2022-08-19T02:22:26;16.80;1.00
16249;DHT22;8232;51.678;6.610;2022-08-19T02:24:53;16.80;1.00
16249;DHT22;8232;51.678;6.610;2022-08-19T02:27:20;16.60;1.00
16249;DHT22;8232;51.678;6.610;2022-08-19T02:29:48;16.60;1.00
16249;DHT22;8232;51.678;6.610;2022-08-19T02:32:18;16.60;1.00
16249;DHT22;8232;51.678;6.610;2022-08-19T02:34:45;16.70;1.00
16249;DHT22;8232;51.678;6.610;2022-08-19T02:37:12;16.80;1.00
16249;DHT22;8232;51.678;6.610;2022-08-19T02:39:53;16.70;1.00
16249;DHT22;8232;51.678;6.610;2022-08-19T02:42:19;16.60;1.00
16249;DHT22;8232;51.678;6.610;2022-08-19T02:44:46;16.50;1.00
16249;DHT22;8232;51.678;6.610;2022-08-19T02:47:13;16.50;1.00
16249;DHT22;8232;51.678;6.610;2022-08-19T02:49:42;16.60;1.00
16249;DHT22;8232;51.678;6.610;2022-08-19T02:52:09;16.70;1.00
16249;DHT22;8232;51.678;6.610;2022-08-19T02:54:36;16.70;1.00
16249;DHT22;8232;51.678;6.610;2022-08-19T02:57:04;16.80;1.00
16249;DHT22;8232;51.678;6.610;2022-08-19T02:59:31;16.90;1.00
16249;DHT22;8232;51.678;6.610;2022-08-19T03:01:58;16.80;1.00
16249;DHT22;8232;51.678;6.610;2022-08-19T03:04:25;16.60;1.00
16249;DHT22;8232;51.678;6.610;2022-08-19T03:06:53;16.50;1.00
16249;DHT22;8232;51.678;6.610;2022-08-19T03:09:20;16.40;1.00
16249;DHT22;8232;51.678;6.610;2022-08-19T03:11:47;16.40;1.00
16249;DHT22;8232;51.678;6.610;2022-08-19T03:14:14;16.40;1.00
16249;DHT22;8232;51.678;6.610;2022-08-19T03:16:43;16.50;1.00
16249;DHT22;8232;51.678;6.610;2022-08-19T03:19:10;16.60;1.00
16249;DHT22;8232;51.678;6.610;2022-08-19T03:21:37;16.80;1.00
16249;DHT22;8232;51.678;6.610;2022-08-19T03:24:08;16.80;1.00
16249;DHT22;8232;51.678;6.610;2022-08-19T03:26:38;16.80;1.00
16249;DHT22;8232;51.678;6.610;2022-08-19T03:29:06;16.80;1.00
16249;DHT22;8232;51.678;6.610;2022-08-19T03:31:35;16.70;1.00
16249;DHT22;8232;51.678;6.610;2022-08-19T03:34:02;16.60;1.00
16249;DHT22;8232;51.678;6.610;2022-08-19T03:36:30;16.60;1.00
16249;DHT22;8232;51.678;6.610;2022-08-19T03:38:58;16.50;1.00
16249;DHT22;8232;51.678;6.610;2022-08-19T03:41:30;16.50;1.00
16249;DHT22;8232;51.678;6.610;2022-08-19T03:43:57;16.50;1.00
16249;DHT22;8232;51.678;6.610;2022-08-19T03:46:25;16.60;1.00
16249;DHT22;8232;51.678;6.610;2022-08-19T03:48:54;16.70;1.00
16249;DHT22;8232;51.678;6.610;2022-08-19T03:51:24;16.60;1.00
16249;DHT22;8232;51.678;6.610;2022-08-19T03:53:51;16.50;1.00
16249;DHT22;8232;51.678;6.610;2022-08-19T03:56:18;16.40;1.00
16249;DHT22;8232;51.678;6.610;2022-08-19T03:58:47;16.40;1.00
16249;DHT22;8232;51.678;6.610;2022-08-19T04:01:17;16.30;1.00
16249;DHT22;8232;51.678;6.610;2022-08-19T04:03:45;16.30;1.00
16249;DHT22;8232;51.678;6.610;2022-08-19T04:06:14;16.30;1.00
16249;DHT22;8232;51.678;6.610;2022-08-19T04:08:42;16.30;1.00
16249;DHT22;8232;51.678;6.610;2022-08-19T04:11:11;16.20;1.00
16249;DHT22;8232;51.678;6.610;2022-08-19T04:13:38;16.20;1.00
16249;DHT22;8232;51.678;6.610;2022-08-19T04:16:07;16.20;1.00
16249;DHT22;8232;51.678;6.610;2022-08-19T04:18:36;16.20;1.00
16249;DHT22;8232;51.678;6.610;2022-08-19T04:21:05;16.20;1.00
16249;DHT22;8232;51.678;6.610;2022-08-19T04:23:33;16.30;1.00
16249;DHT22;8232;51.678;6.610;2022-08-19T04:26:01;16.30;1.00
16249;DHT22;8232;51.678;6.610;2022-08-19T04:28:28;16.20;1.00
16249;DHT22;8232;51.678;6.610;2022-08-19T04:30:56;16.30;1.00
16249;DHT22;8232;51.678;6.610;2022-08-19T04:33:25;16.40;1.00
16249;DHT22;8232;51.678;6.610;2022-08-19T04:35:54;16.50;1.00
16249;DHT22;8232;51.678;6.610;2022-08-19T04:38:23;16.60;1.00
16249;DHT22;8232;51.678;6.610;2022-08-19T04:40:51;16.70;1.00
16249;DHT22;8232;51.678;6.610;2022-08-19T04:43:38;16.70;1.00
16249;DHT22;8232;51.678;6.610;2022-08-19T04:46:06;16.80;1.00
16249;DHT22;8232;51.678;6.610;2022-08-19T04:48:34;16.80;1.00
16249;DHT22;8232;51.678;6.610;2022-08-19T04:51:06;16.70;1.00
16249;DHT22;8232;51.678;6.610;2022-08-19T04:53:36;16.70;1.00
16249;DHT22;8232;51.678;6.610;2022-08-19T04:56:06;16.70;1.00
16249;DHT22;8232;51.678;6.610;2022-08-19T04:58:34;16.60;1.00
16249;DHT22;8232;51.678;6.610;2022-08-19T05:01:02;16.70;1.00
16249;DHT22;8232;51.678;6.610;2022-08-19T05:03:29;16.70;1.00
16249;DHT22;8232;51.678;6.610;2022-08-19T05:06:04;16.70;1.00
16249;DHT22;8232;51.678;6.610;2022-08-19T05:08:34;16.80;1.00
16249;DHT22;8232;51.678;6.610;2022-08-19T05:11:01;16.80;1.00
16249;DHT22;8232;51.678;6.610;2022-08-19T05:13:33;16.90;1.00
16249;DHT22;8232;51.678;6.610;2022-08-19T05:16:00;17.00;1.00
16249;DHT22;8232;51.678;6.610;2022-08-19T05:18:27;17.00;1.00
16249;DHT22;8232;51.678;6.610;2022-08-19T05:21:15;17.10;1.00
16249;DHT22;8232;51.678;6.610;2022-08-19T05:23:59;17.10;1.00
16249;DHT22;8232;51.678;6.610;2022-08-19T05:26:27;17.10;1.00
16249;DHT22;8232;51.678;6.610;2022-08-19T05:28:54;17.10;1.00
16249;DHT22;8232;51.678;6.610;2022-08-19T05:31:21;17.10;1.00
16249;DHT22;8232;51.678;6.610;2022-08-19T05:33:48;17.10;1.00
16249;DHT22;8232;51.678;6.610;2022-08-19T05:36:17;17.00;1.00
16249;DHT22;8232;51.678;6.610;2022-08-19T05:38:45;17.20;1.00
16249;DHT22;8232;51.678;6.610;2022-08-19T05:41:13;17.10;1.00
16249;DHT22;8232;51.678;6.610;2022-08-19T05:43:42;17.20;1.00
16249;DHT22;8232;51.678;6.610;2022-08-19T05:46:16;17.20;1.00
16249;DHT22;8232;51.678;6.610;2022-08-19T05:48:43;17.20;1.00
16249;DHT22;8232;51.678;6.610;2022-08-19T05:51:10;17.30;1.00
16249;DHT22;8232;51.678;6.610;2022-08-19T05:53:39;17.50;1.00
16249;DHT22;8232;51.678;6.610;2022-08-19T05:56:06;17.70;1.00
16249;DHT22;8232;51.678;6.610;2022-08-19T05:58:33;17.60;1.00
16249;DHT22;8232;51.678;6.610;2022-08-19T06:01:01;17.80;1.00
16249;DHT22;8232;51.678;6.610;2022-08-19T06:03:31;17.90;1.00
16249;DHT22;8232;51.678;6.610;2022-08-19T06:05:59;18.00;1.00
16249;DHT22;8232;51.678;6.610;2022-08-19T06:08:26;18.20;1.00
16249;DHT22;8232;51.678;6.610;2022-08-19T06:10:54;18.60;1.00
16249;DHT22;8232;51.678;6.610;2022-08-19T06:13:22;19.00;1.00
16249;DHT22;8232;51.678;6.610;2022-08-19T06:15:51;19.40;1.00
16249;DHT22;8232;51.678;6.610;2022-08-19T06:18:18;20.00;1.00
16249;DHT22;8232;51.678;6.610;2022-08-19T06:20:45;20.30;1.00
16249;DHT22;8232;51.678;6.610;2022-08-19T06:23:12;20.40;1.00
16249;DHT22;8232;51.678;6.610;2022-08-19T06:25:39;20.50;1.00
16249;DHT22;8232;51.678;6.610;2022-08-19T06:28:07;20.60;1.00
16249;DHT22;8232;51.678;6.610;2022-08-19T06:30:35;20.40;1.00
16249;DHT22;8232;51.678;6.610;2022-08-19T06:33:02;21.20;1.00
16249;DHT22;8232;51.678;6.610;2022-08-19T06:35:29;21.20;1.00
16249;DHT22;8232;51.678;6.610;2022-08-19T06:37:57;21.30;1.00
16249;DHT22;8232;51.678;6.610;2022-08-19T06:40:24;21.20;1.00
16249;DHT22;8232;51.678;6.610;2022-08-19T06:42:53;21.40;1.00
16249;DHT22;8232;51.678;6.610;2022-08-19T06:45:23;21.80;1.00
16249;DHT22;8232;51.678;6.610;2022-08-19T06:47:50;21.60;1.00
16249;DHT22;8232;51.678;6.610;2022-08-19T06:50:19;21.90;1.00
16249;DHT22;8232;51.678;6.610;2022-08-19T06:52:47;22.50;1.00
16249;DHT22;8232;51.678;6.610;2022-08-19T06:55:14;22.20;1.00
16249;DHT22;8232;51.678;6.610;2022-08-19T06:57:41;22.40;1.00
16249;DHT22;8232;51.678;6.610;2022-08-19T07:00:11;22.40;1.00
16249;DHT22;8232;51.678;6.610;2022-08-19T07:02:40;22.70;1.00
16249;DHT22;8232;51.678;6.610;2022-08-19T07:05:07;22.40;1.00
16249;DHT22;8232;51.678;6.610;2022-08-19T07:07:35;22.90;1.00
16249;DHT22;8232;51.678;6.610;2022-08-19T07:10:03;23.30;1.00
16249;DHT22;8232;51.678;6.610;2022-08-19T07:12:32;23.30;1.00
16249;DHT22;8232;51.678;6.610;2022-08-19T07:14:59;23.40;1.00
16249;DHT22;8232;51.678;6.610;2022-08-19T07:17:27;23.50;1.00
16249;DHT22;8232;51.678;6.610;2022-08-19T07:19:56;22.80;1.00
16249;DHT22;8232;51.678;6.610;2022-08-19T07:22:23;22.70;1.00
16249;DHT22;8232;51.678;6.610;2022-08-19T07:24:50;22.30;1.00
16249;DHT22;8232;51.678;6.610;2022-08-19T07:27:16;22.40;1.00
16249;DHT22;8232;51.678;6.610;2022-08-19T07:29:44;22.80;1.00
16249;DHT22;8232;51.678;6.610;2022-08-19T07:32:11;23.20;1.00
16249;DHT22;8232;51.678;6.610;2022-08-19T07:34:38;23.70;1.00
16249;DHT22;8232;51.678;6.610;2022-08-19T07:37:07;23.70;1.00
16249;DHT22;8232;51.678;6.610;2022-08-19T07:39:35;24.60;1.00
16249;DHT22;8232;51.678;6.610;2022-08-19T07:42:05;24.70;1.00
16249;DHT22;8232;51.678;6.610;2022-08-19T07:44:33;24.60;1.00
16249;DHT22;8232;51.678;6.610;2022-08-19T07:47:01;24.70;1.00
16249;DHT22;8232;51.678;6.610;2022-08-19T07:49:28;25.20;1.00
16249;DHT22;8232;51.678;6.610;2022-08-19T07:51:57;25.70;1.00
16249;DHT22;8232;51.678;6.610;2022-08-19T07:54:26;24.60;1.00
16249;DHT22;8232;51.678;6.610;2022-08-19T07:56:54;24.60;1.00
16249;DHT22;8232;51.678;6.610;2022-08-19T07:59:22;25.10;1.00
16249;DHT22;8232;51.678;6.610;2022-08-19T08:01:50;26.30;1.00
16249;DHT22;8232;51.678;6.610;2022-08-19T08:04:18;27.40;1.00
16249;DHT22;8232;51.678;6.610;2022-08-19T08:07:04;26.70;1.00
16249;DHT22;8232;51.678;6.610;2022-08-19T08:09:50;26.30;1.00
16249;DHT22;8232;51.678;6.610;2022-08-19T08:12:21;25.80;1.00
16249;DHT22;8232;51.678;6.610;2022-08-19T08:14:52;25.90;1.00
16249;DHT22;8232;51.678;6.610;2022-08-19T08:17:21;26.40;1.00
16249;DHT22;8232;51.678;6.610;2022-08-19T08:19:49;25.60;1.00
16249;DHT22;8232;51.678;6.610;2022-08-19T08:22:19;25.40;1.00
16249;DHT22;8232;51.678;6.610;2022-08-19T08:25:08;25.90;1.00
16249;DHT22;8232;51.678;6.610;2022-08-19T08:27:35;25.70;1.00
16249;DHT22;8232;51.678;6.610;2022-08-19T08:30:06;26.00;1.00
16249;DHT22;8232;51.678;6.610;2022-08-19T08:32:35;26.20;1.00
16249;DHT22;8232;51.678;6.610;2022-08-19T08:35:03;26.30;1.00
16249;DHT22;8232;51.678;6.610;2022-08-19T08:37:30;26.50;1.00
16249;DHT22;8232;51.678;6.610;2022-08-19T08:39:57;26.00;1.00
16249;DHT22;8232;51.678;6.610;2022-08-19T08:42:29;25.80;1.00
16249;DHT22;8232;51.678;6.610;2022-08-19T08:44:59;26.20;1.00
16249;DHT22;8232;51.678;6.610;2022-08-19T08:47:32;26.30;1.00
16249;DHT22;8232;51.678;6.610;2022-08-19T08:50:04;26.50;1.00
16249;DHT22;8232;51.678;6.610;2022-08-19T08:52:34;26.60;1.00
16249;DHT22;8232;51.678;6.610;2022-08-19T08:55:07;26.90;1.00
16249;DHT22;8232;51.678;6.610;2022-08-19T08:57:49;27.70;1.00
16249;DHT22;8232;51.678;6.610;2022-08-19T09:00:22;26.70;1.00
16249;DHT22;8232;51.678;6.610;2022-08-19T09:02:52;27.30;1.00
16249;DHT22;8232;51.678;6.610;2022-08-19T09:05:19;26.40;1.00
16249;DHT22;8232;51.678;6.610;2022-08-19T09:07:53;26.30;1.00
16249;DHT22;8232;51.678;6.610;2022-08-19T09:10:29;27.70;1.00
16249;DHT22;8232;51.678;6.610;2022-08-19T09:13:04;28.30;1.00
16249;DHT22;8232;51.678;6.610;2022-08-19T09:15:38;28.90;1.00
16249;DHT22;8232;51.678;6.610;2022-08-19T09:18:08;27.00;1.00
16249;DHT22;8232;51.678;6.610;2022-08-19T09:20:35;27.40;1.00
16249;DHT22;8232;51.678;6.610;2022-08-19T09:23:02;28.90;1.00
16249;DHT22;8232;51.678;6.610;2022-08-19T09:25:29;28.90;1.00
16249;DHT22;8232;51.678;6.610;2022-08-19T09:27:59;29.20;1.00
16249;DHT22;8232;51.678;6.610;2022-08-19T09:30:30;28.70;1.00
16249;DHT22;8232;51.678;6.610;2022-08-19T09:32:57;28.60;1.00
16249;DHT22;8232;51.678;6.610;2022-08-19T09:35:27;29.80;1.00
16249;DHT22;8232;51.678;6.610;2022-08-19T09:37:55;29.40;1.00
16249;DHT22;8232;51.678;6.610;2022-08-19T09:40:22;30.20;1.00
16249;DHT22;8232;51.678;6.610;2022-08-19T09:42:50;30.30;1.00
16249;DHT22;8232;51.678;6.610;2022-08-19T09:45:20;30.10;1.00
16249;DHT22;8232;51.678;6.610;2022-08-19T09:47:48;29.60;1.00
16249;DHT22;8232;51.678;6.610;2022-08-19T09:50:16;30.40;1.00
16249;DHT22;8232;51.678;6.610;2022-08-19T09:52:44;29.90;1.00
16249;DHT22;8232;51.678;6.610;2022-08-19T09:55:12;30.30;1.00
16249;DHT22;8232;51.678;6.610;2022-08-19T09:57:41;29.60;1.00
16249;DHT22;8232;51.678;6.610;2022-08-19T10:00:09;28.50;1.00
16249;DHT22;8232;51.678;6.610;2022-08-19T10:02:37;29.60;1.00
16249;DHT22;8232;51.678;6.610;2022-08-19T10:05:05;30.10;1.00
16249;DHT22;8232;51.678;6.610;2022-08-19T10:07:49;29.70;1.00
16249;DHT22;8232;51.678;6.610;2022-08-19T10:10:17;30.20;1.00
16249;DHT22;8232;51.678;6.610;2022-08-19T10:12:44;29.80;1.00
16249;DHT22;8232;51.678;6.610;2022-08-19T10:15:13;29.80;1.00
16249;DHT22;8232;51.678;6.610;2022-08-19T10:17:41;30.60;1.00
16249;DHT22;8232;51.678;6.610;2022-08-19T10:20:09;30.10;1.00
16249;DHT22;8232;51.678;6.610;2022-08-19T10:22:36;28.10;1.00
16249;DHT22;8232;51.678;6.610;2022-08-19T10:25:05;27.10;1.00
16249;DHT22;8232;51.678;6.610;2022-08-19T10:27:32;29.40;1.00
16249;DHT22;8232;51.678;6.610;2022-08-19T10:29:59;28.80;1.00
16249;DHT22;8232;51.678;6.610;2022-08-19T10:32:26;31.60;1.00
16249;DHT22;8232;51.678;6.610;2022-08-19T10:34:56;31.30;1.00
16249;DHT22;8232;51.678;6.610;2022-08-19T10:37:23;31.00;1.00
16249;DHT22;8232;51.678;6.610;2022-08-19T10:39:50;32.10;1.00
16249;DHT22;8232;51.678;6.610;2022-08-19T10:42:17;32.00;1.00
16249;DHT22;8232;51.678;6.610;2022-08-19T10:44:44;31.90;1.00
16249;DHT22;8232;51.678;6.610;2022-08-19T10:47:13;31.50;99.90
16249;DHT22;8232;51.678;6.610;2022-08-19T10:49:41;30.10;1.00
16249;DHT22;8232;51.678;6.610;2022-08-19T10:52:23;31.50;1.00
16249;DHT22;8232;51.678;6.610;2022-08-19T10:55:04;31.70;1.00
16249;DHT22;8232;51.678;6.610;2022-08-19T10:57:49;32.40;99.90
16249;DHT22;8232;51.678;6.610;2022-08-19T11:00:16;32.70;1.00
16249;DHT22;8232;51.678;6.610;2022-08-19T11:02:43;32.10;99.90
16249;DHT22;8232;51.678;6.610;2022-08-19T11:05:11;32.00;99.90
16249;DHT22;8232;51.678;6.610;2022-08-19T11:07:40;33.40;99.90
16249;DHT22;8232;51.678;6.610;2022-08-19T11:10:10;32.10;99.90
16249;DHT22;8232;51.678;6.610;2022-08-19T11:12:37;32.60;99.90
16249;DHT22;8232;51.678;6.610;2022-08-19T11:15:06;31.60;99.90
16249;DHT22;8232;51.678;6.610;2022-08-19T11:17:34;32.60;99.90
16249;DHT22;8232;51.678;6.610;2022-08-19T11:20:01;32.70;1.00
16249;DHT22;8232;51.678;6.610;2022-08-19T11:22:30;34.90;99.90
16249;DHT22;8232;51.678;6.610;2022-08-19T11:24:59;34.30;99.90
16249;DHT22;8232;51.678;6.610;2022-08-19T11:27:25;33.70;99.90
16249;DHT22;8232;51.678;6.610;2022-08-19T11:29:54;34.30;99.90
16249;DHT22;8232;51.678;6.610;2022-08-19T11:32:21;33.90;99.90
16249;DHT22;8232;51.678;6.610;2022-08-19T11:34:48;32.40;99.90
16249;DHT22;8232;51.678;6.610;2022-08-19T11:37:15;31.20;99.90
16249;DHT22;8232;51.678;6.610;2022-08-19T11:39:42;32.00;99.90
16249;DHT22;8232;51.678;6.610;2022-08-19T11:42:10;34.40;99.90
16249;DHT22;8232;51.678;6.610;2022-08-19T11:44:55;36.10;99.90
16249;DHT22;8232;51.678;6.610;2022-08-19T11:47:22;33.80;99.90
16249;DHT22;8232;51.678;6.610;2022-08-19T11:49:48;33.10;99.90
16249;DHT22;8232;51.678;6.610;2022-08-19T11:52:15;32.80;99.90
16249;DHT22;8232;51.678;6.610;2022-08-19T11:54:42;34.10;99.90
16249;DHT22;8232;51.678;6.610;2022-08-19T11:57:10;35.10;99.90
16249;DHT22;8232;51.678;6.610;2022-08-19T11:59:37;32.90;99.90
16249;DHT22;8232;51.678;6.610;2022-08-19T12:02:04;29.50;99.90
16249;DHT22;8232;51.678;6.610;2022-08-19T12:04:31;29.90;99.90
16249;DHT22;8232;51.678;6.610;2022-08-19T12:06:58;29.20;99.90
16249;DHT22;8232;51.678;6.610;2022-08-19T12:09:25;27.90;99.90
16249;DHT22;8232;51.678;6.610;2022-08-19T12:11:52;27.50;99.90
16249;DHT22;8232;51.678;6.610;2022-08-19T12:14:20;27.90;99.90
16249;DHT22;8232;51.678;6.610;2022-08-19T12:16:48;30.20;99.90
16249;DHT22;8232;51.678;6.610;2022-08-19T12:19:15;32.10;99.90
16249;DHT22;8232;51.678;6.610;2022-08-19T12:21:42;31.40;99.90
16249;DHT22;8232;51.678;6.610;2022-08-19T12:24:09;33.20;99.90
16249;DHT22;8232;51.678;6.610;2022-08-19T12:26:36;35.10;99.90
16249;DHT22;8232;51.678;6.610;2022-08-19T12:29:03;35.40;99.90
16249;DHT22;8232;51.678;6.610;2022-08-19T12:31:31;33.10;99.90
16249;DHT22;8232;51.678;6.610;2022-08-19T12:33:59;33.20;99.90
16249;DHT22;8232;51.678;6.610;2022-08-19T12:36:26;33.00;99.90
16249;DHT22;8232;51.678;6.610;2022-08-19T12:38:53;32.60;99.90
16249;DHT22;8232;51.678;6.610;2022-08-19T12:41:20;32.60;99.90
16249;DHT22;8232;51.678;6.610;2022-08-19T12:43:48;34.20;99.90
16249;DHT22;8232;51.678;6.610;2022-08-19T12:46:16;32.10;99.90
16249;DHT22;8232;51.678;6.610;2022-08-19T12:48:45;32.70;99.90
16249;DHT22;8232;51.678;6.610;2022-08-19T12:51:15;32.80;99.90
16249;DHT22;8232;51.678;6.610;2022-08-19T12:53:42;32.10;99.90
16249;DHT22;8232;51.678;6.610;2022-08-19T12:56:10;31.70;99.90
16249;DHT22;8232;51.678;6.610;2022-08-19T12:58:40;30.40;99.90
16249;DHT22;8232;51.678;6.610;2022-08-19T13:01:09;30.10;99.90
16249;DHT22;8232;51.678;6.610;2022-08-19T13:03:36;31.10;99.90
16249;DHT22;8232;51.678;6.610;2022-08-19T13:06:05;32.50;99.90
16249;DHT22;8232;51.678;6.610;2022-08-19T13:08:31;31.30;99.90
16249;DHT22;8232;51.678;6.610;2022-08-19T13:11:07;28.90;99.90
16249;DHT22;8232;51.678;6.610;2022-08-19T13:13:34;28.20;99.90
16249;DHT22;8232;51.678;6.610;2022-08-19T13:16:01;27.40;99.90
16249;DHT22;8232;51.678;6.610;2022-08-19T13:18:29;27.50;99.90
16249;DHT22;8232;51.678;6.610;2022-08-19T13:20:56;27.40;99.90
16249;DHT22;8232;51.678;6.610;2022-08-19T13:23:25;26.80;99.90
16249;DHT22;8232;51.678;6.610;2022-08-19T13:25:56;26.70;99.90
16249;DHT22;8232;51.678;6.610;2022-08-19T13:28:23;26.80;99.90
16249;DHT22;8232;51.678;6.610;2022-08-19T13:30:50;26.20;99.90
16249;DHT22;8232;51.678;6.610;2022-08-19T13:33:35;26.50;99.90
16249;DHT22;8232;51.678;6.610;2022-08-19T13:36:02;26.90;99.90
16249;DHT22;8232;51.678;6.610;2022-08-19T13:38:34;26.30;99.90
16249;DHT22;8232;51.678;6.610;2022-08-19T13:41:04;26.50;99.90
16249;DHT22;8232;51.678;6.610;2022-08-19T13:43:32;26.60;99.90
16249;DHT22;8232;51.678;6.610;2022-08-19T13:45:58;27.00;99.90
16249;DHT22;8232;51.678;6.610;2022-08-19T13:48:26;26.10;99.90
16249;DHT22;8232;51.678;6.610;2022-08-19T13:50:53;26.40;99.90
16249;DHT22;8232;51.678;6.610;2022-08-19T13:53:20;26.50;99.90
16249;DHT22;8232;51.678;6.610;2022-08-19T13:55:48;26.30;99.90
16249;DHT22;8232;51.678;6.610;2022-08-19T13:58:16;26.20;99.90
16249;DHT22;8232;51.678;6.610;2022-08-19T14:00:45;26.10;99.90
16249;DHT22;8232;51.678;6.610;2022-08-19T14:03:12;26.60;99.90
16249;DHT22;8232;51.678;6.610;2022-08-19T14:05:39;26.90;99.90
16249;DHT22;8232;51.678;6.610;2022-08-19T14:08:07;26.40;99.90
16249;DHT22;8232;51.678;6.610;2022-08-19T14:10:34;26.50;99.90
16249;DHT22;8232;51.678;6.610;2022-08-19T14:13:03;26.20;99.90
16249;DHT22;8232;51.678;6.610;2022-08-19T14:15:30;26.60;99.90
16249;DHT22;8232;51.678;6.610;2022-08-19T14:17:58;27.10;99.90
16249;DHT22;8232;51.678;6.610;2022-08-19T14:20:25;26.60;99.90
16249;DHT22;8232;51.678;6.610;2022-08-19T14:22:53;26.60;99.90
16249;DHT22;8232;51.678;6.610;2022-08-19T14:25:22;26.90;99.90
16249;DHT22;8232;51.678;6.610;2022-08-19T14:27:49;27.00;99.90
16249;DHT22;8232;51.678;6.610;2022-08-19T14:30:20;27.00;99.90
16249;DHT22;8232;51.678;6.610;2022-08-19T14:32:47;27.00;99.90
16249;DHT22;8232;51.678;6.610;2022-08-19T14:35:15;27.00;99.90
16249;DHT22;8232;51.678;6.610;2022-08-19T14:37:43;26.60;99.90
16249;DHT22;8232;51.678;6.610;2022-08-19T14:40:12;26.90;99.90
16249;DHT22;8232;51.678;6.610;2022-08-19T14:42:39;27.30;99.90
16249;DHT22;8232;51.678;6.610;2022-08-19T14:45:08;27.40;99.90
16249;DHT22;8232;51.678;6.610;2022-08-19T14:47:36;26.90;99.90
16249;DHT22;8232;51.678;6.610;2022-08-19T14:50:05;26.80;99.90
16249;DHT22;8232;51.678;6.610;2022-08-19T14:52:32;27.00;99.90
16249;DHT22;8232;51.678;6.610;2022-08-19T14:54:59;27.30;99.90
16249;DHT22;8232;51.678;6.610;2022-08-19T14:57:26;27.30;99.90
16249;DHT22;8232;51.678;6.610;2022-08-19T14:59:53;27.20;99.90
16249;DHT22;8232;51.678;6.610;2022-08-19T15:02:20;27.20;99.90
16249;DHT22;8232;51.678;6.610;2022-08-19T15:04:48;27.50;99.90
16249;DHT22;8232;51.678;6.610;2022-08-19T15:07:15;27.10;99.90
16249;DHT22;8232;51.678;6.610;2022-08-19T15:09:42;27.10;99.90
16249;DHT22;8232;51.678;6.610;2022-08-19T15:12:09;27.00;99.90
16249;DHT22;8232;51.678;6.610;2022-08-19T15:14:37;27.20;99.90
16249;DHT22;8232;51.678;6.610;2022-08-19T15:17:04;26.80;99.90
16249;DHT22;8232;51.678;6.610;2022-08-19T15:19:32;26.60;99.90
16249;DHT22;8232;51.678;6.610;2022-08-19T15:22:02;27.00;99.90
16249;DHT22;8232;51.678;6.610;2022-08-19T15:24:29;27.00;99.90
16249;DHT22;8232;51.678;6.610;2022-08-19T15:26:56;27.00;99.90
16249;DHT22;8232;51.678;6.610;2022-08-19T15:29:23;27.00;1.00
16249;DHT22;8232;51.678;6.610;2022-08-19T15:31:51;26.90;99.90
16249;DHT22;8232;51.678;6.610;2022-08-19T15:34:20;26.90;99.90
16249;DHT22;8232;51.678;6.610;2022-08-19T15:36:47;27.20;99.90
16249;DHT22;8232;51.678;6.610;2022-08-19T15:39:15;27.30;99.90
16249;DHT22;8232;51.678;6.610;2022-08-19T15:41:44;27.00;99.90
16249;DHT22;8232;51.678;6.610;2022-08-19T15:44:14;27.00;99.90
16249;DHT22;8232;51.678;6.610;2022-08-19T15:46:44;26.90;99.90
16249;DHT22;8232;51.678;6.610;2022-08-19T15:49:14;26.90;99.90
16249;DHT22;8232;51.678;6.610;2022-08-19T15:51:43;26.70;99.90
16249;DHT22;8232;51.678;6.610;2022-08-19T15:54:13;26.10;99.90
16249;DHT22;8232;51.678;6.610;2022-08-19T15:56:41;26.30;99.90
16249;DHT22;8232;51.678;6.610;2022-08-19T15:59:32;26.50;99.90
16249;DHT22;8232;51.678;6.610;2022-08-19T16:02:18;26.50;99.90
16249;DHT22;8232;51.678;6.610;2022-08-19T16:05:05;26.80;99.90
16249;DHT22;8232;51.678;6.610;2022-08-19T16:07:50;26.80;99.90